Tiempo atmosférico en la estación meteorológica de Lagunas De Somoza, León (1020 m.)



Fecha
DESCASC
Temp. máxima en grados centígrados (hora)
DESCASC
Temp. mínima en grados centígrados (hora)
DESCASC
Temp. media en grados centígrados
DESCASC
Racha de viento máxima en m/sg (hora)
DESCASC
Velocidad máxima media en intervalos de 10 minutos(hora)
DESCASC
Precipitaciones diarias en mm
DESCASC
Precipitaciones de 00:00 a 06:00 en mm
DESCASC
Precipitaciones de 06:00 a 12:00 en mm
DESCASC
Precipitaciones de 12:00 a 18:00 en mm
DESCASC
Precipitaciones de 18:00 a 24:00 en mm
DESCASC
30-11-2020 11.2 (14:50) 0.5 (23:59) 5.8 3.61 (22:30) 2.78 (19:30) 0.1 0 0.1 0 0
29-11-2020 11.3 (16:10) 1.9 (00:00) 6.6 4.17 (12:00) 2.5 (01:30) 0 0 0 0 0
28-11-2020 10.3 (15:40) 4.2 (00:00) 7.3 5 (12:50) 3.33 (22:00) 0 0 0 0 0
27-11-2020 11.2 (16:00) 5.1 (00:00) 8.1 5 (00:10) 3.33 (00:40) 1.1 0.2 0.1 0.8 0
26-11-2020 7.1 (13:20) 4.3 (00:00) 5.7 7.78 (10:00) 4.44 (09:50) 5.7 3.6 0.1 0.6 1.4
25-11-2020 6.1 (04:00) 2.9 (00:00) 4.5 6.39 (19:20) 4.44 (19:20) 19.5 0.4 3.3 9.6 6.2
24-11-2020 11.5 (14:10) -2 (-00:0) 4.8 5.83 (23:40) 3.33 (23:40) 0 0 0 0 0
23-11-2020 16.5 (15:30) -0.9 (-00:0) 7.8 3.33 (00:40) 2.78 (00:40) 0 0 0 0 0
22-11-2020 17.8 (16:10) -1.4 (-00:0) 8.2 4.17 (21:20) 3.33 (21:20) 0 0 0 0 0
21-11-2020 18.1 (15:30) -0.5 (-00:0) 8.8 5 (08:20) 4.17 (08:20) 0 0 0 0 0
20-11-2020 12.5 (14:50) 1.2 (00:00) 6.9 3.61 (15:40) 2.5 (15:20) 0.2 0.1 0.1 0 0
19-11-2020 18.3 (15:40) 4.5 (00:00) 11.4 4.72 (06:10) 3.06 (06:00) 0 0 0 0 0
18-11-2020 14.8 (15:00) 1.1 (00:00) 8 4.17 (23:59) 2.5 (22:10) 0 0 0 0 0
17-11-2020 15.7 (15:40) -0.7 (-00:0) 7.5 5.56 (16:40) 3.89 (16:40) 0 0 0 0 0
16-11-2020 14.3 (15:40) 1.9 (00:00) 8.1 5.83 (01:50) 3.89 (01:50) 0.1 0 0.1 0 0
15-11-2020 16.8 (12:10) 6 (23:50) 11.4 12.22 (12:30) 7.78 (12:20) 0.9 0 0.1 0.8 0
14-11-2020 9.5 (23:59) 4.5 (08:50) 7 6.39 (23:30) 3.61 (23:30) 0.1 0 0.1 0 0
13-11-2020 8.8 (16:10) 2.6 (07:30) 5.7 3.33 (12:20) 2.22 (21:20) 0 0 0 0 0

Gráficas

Temp. máximas Temp. mínimas Temp. medias Precipitaciones Rachas de viento máximas Velocidades máximas media en intervalos de 10 minutos

Datos horarios

Fecha y hora oficial Temperatura (ºC) Velocidad del viento (km/h) Dirección del viento Racha (km/h) Dirección de racha Precipitación (mm) Presión (hPa) Tendencia (hPa) Humedad (%)
2020-12-01 23:00:00 6.4 8 Norte 15 Norte 0 905.9 -- 45
2020-12-01 22:00:00 6.8 6 Noroeste 20 Noroeste 0 906.1 -- 43
2020-12-01 21:00:00 8 12 Norte 18 Noroeste 0 906.3 -- 41
2020-12-01 20:00:00 8.9 11 Noroeste 22 Noroeste 0 906.6 -- 38
2020-12-01 19:00:00 7.5 8 Noroeste 12 Noroeste 0 906.8 -- 44
2020-12-01 18:00:00 8.8 10 Norte 14 Norte 0 906.8 -- 43
2020-12-01 17:00:00 10.9 4 Nordeste 14 Nordeste 0 906.9 -- 33
2020-12-01 16:00:00 12.4 6 Norte 13 Norte 0 906.9 -- 27
2020-12-01 15:00:00 15.5 3 Sudoeste 10 Oeste 0 907.4 -- 26
2020-12-01 14:00:00 13 3 Oeste 8 Norte 0 908 -- 29
2020-12-01 13:00:00 13.2 2 Norte 12 Sur 0 908.6 -- 30
2020-12-01 12:00:00 11.8 5 Sur 13 Sudoeste 0 909.3 -- 33
2020-12-01 11:00:00 9.5 9 Oeste 17 Noroeste 0 909.3 -- 36
2020-12-01 10:00:00 5.2 12 Noroeste 15 Noroeste 0 909.3 -- 48
2020-12-01 09:00:00 1.1 11 Noroeste 14 Noroeste 0 909.3 -- 59
2020-12-01 08:00:00 0.7 10 Noroeste 14 Noroeste 0 909.1 -- 61
2020-12-01 07:00:00 0.7 12 Noroeste 16 Noroeste 0 908.8 -- 72
2020-12-01 06:00:00 1.3 10 Noroeste 15 Noroeste 0 908.7 -- 78
2020-12-01 05:00:00 2.3 13 Noroeste 17 Noroeste 0 908.7 -- 82
2020-12-01 04:00:00 1.9 13 Noroeste 14 Noroeste 0 909.2 -- 84
2020-12-01 03:00:00 1.1 9 Noroeste 13 Noroeste 0 909.5 -- 87
2020-12-01 02:00:00 0.1 8 Noroeste 11 Noroeste 0 909.5 -- 89
2020-12-01 01:00:00 0.2 6 Noroeste 10 Noroeste 0 909.6 -- 89
2020-12-01 00:00:00 1 2 Norte 10 Noroeste 0 909.8 -- 88
2020-11-30 23:00:00 0.9 7 Noroeste 13 Noroeste 0 909.8 -- 89
2020-11-30 22:00:00 1.2 6 Noroeste 12 Noroeste 0 909.6 -- 88
2020-11-30 21:00:00 1.7 6 Noroeste 10 Noroeste 0 909.1 -- 89
2020-11-30 20:00:00 2.2 8 Noroeste 12 Noroeste 0 908.5 -- 88
2020-11-30 19:00:00 2 7 Noroeste 10 Noroeste 0 908.2 -- 84
2020-11-30 18:00:00 5.1 4 Noroeste 5 Norte 0 908 -- 73
2020-11-30 17:00:00 9.4 3 Nordeste 6 Nordeste 0 907.5 -- 58
2020-11-30 16:00:00 9.7 5 Nordeste 8 Nordeste 0 907.3 -- 57
2020-11-30 15:00:00 11 4 Nordeste 7 Este 0 907.5 -- 54
2020-11-30 14:00:00 10 5 Este 11 Este 0 907.4 -- 60
2020-11-30 13:00:00 10.7 5 Este 8 Este 0 907.4 -- 61
2020-11-30 12:00:00 8.9 0 Calma 4 Nordeste 0.1 907.8 -- 71
2020-11-30 11:00:00 6.2 0 Calma 8 Nordeste 0 907.5 -- 84
2020-11-30 10:00:00 4.6 2 Norte 9 Noroeste 0 906.9 -- 94
2020-11-30 09:00:00 1.3 6 Noroeste 10 Noroeste 0 906.5 -- 94
2020-11-30 08:00:00 2 5 Oeste 10 Noroeste 0 906.2 -- 94
2020-11-30 07:00:00 1.5 8 Noroeste 10 Noroeste 0 905.9 -- 94
2020-11-30 06:00:00 1.2 6 Noroeste 8 Noroeste 0 905.4 -- 94
2020-11-30 05:00:00 1.5 4 Noroeste 6 Norte 0 905.3 -- 94
2020-11-30 04:00:00 1 5 Noroeste 7 Noroeste 0 905.5 -- 93
2020-11-30 03:00:00 1.7 4 Norte 7 Noroeste 0 905 -- 93
2020-11-30 02:00:00 1.8 5 Noroeste 8 Noroeste 0 905.1 -- 93
2020-11-30 01:00:00 2.4 2 Nordeste 7 Oeste 0 905 -- 93
2020-11-30 00:00:00 2.1 8 Noroeste 11 Noroeste 0 904.5 -- 93
2020-11-29 23:00:00 2.4 4 Noroeste 11 Noroeste 0 904.5 -- 92
2020-11-29 22:00:00 2.9 6 Noroeste 9 Noroeste 0 904 -- 91
2020-11-29 21:00:00 2.8 9 Noroeste 10 Noroeste 0 903.6 -- 91
2020-11-29 20:00:00 2.8 4 Noroeste 10 Noroeste 0 902.9 -- 90
2020-11-29 19:00:00 3.6 6 Noroeste 9 Noroeste 0 902.6 -- 87
2020-11-29 18:00:00 5.3 4 Oeste 5 Sur 0 902 -- 78
2020-11-29 17:00:00 8.5 4 Sur 8 Sur 0 901.5 -- 65
2020-11-29 16:00:00 10.9 3 Sur 10 Sur 0 901.1 -- 60
2020-11-29 15:00:00 9.1 4 Este 14 Este 0 900.9 -- 67
2020-11-29 14:00:00 8.1 8 Este 13 Sudeste 0 900.8 -- 70
2020-11-29 13:00:00 7.7 7 Este 14 Este 0 900.9 -- 76
2020-11-29 12:00:00 7.3 8 Nordeste 15 Nordeste 0 900.9 -- 84
2020-11-29 11:00:00 5.5 3 Sudeste 7 Este 0 900.7 -- 95
2020-11-29 10:00:00 4.6 4 Este 7 Sudeste 0 899.9 -- 95
2020-11-29 09:00:00 4.1 0 Calma 8 Este 0 898.8 -- 95
2020-11-29 08:00:00 4 4 Este 8 Nordeste 0 898.3 -- 95
2020-11-29 07:00:00 4 3 Nordeste 7 Nordeste 0 897.6 -- 95
2020-11-29 06:00:00 3.9 3 Nordeste 10 Nordeste 0 897.2 -- 95
2020-11-29 05:00:00 4 6 Sudeste 11 Este 0 896.8 -- 95
2020-11-29 04:00:00 4.1 7 Sudeste 10 Sudeste 0 896.5 -- 95
2020-11-29 03:00:00 4 6 Sudeste 13 Sudeste 0 896.3 -- 95
2020-11-29 02:00:00 4.2 6 Sudeste 14 Sudeste 0 896.2 -- 95
2020-11-29 01:00:00 4.4 5 Sur 12 Sudeste 0 895.8 -- 94
2020-11-29 00:00:00 4.7 4 Sudeste 14 Sudeste 0 895.4 -- 94
2020-11-28 23:00:00 5 7 Sudeste 15 Sudeste 0 894.9 -- 94
2020-11-28 22:00:00 5.2 12 Sudeste 17 Sudeste 0 894.5 -- 93
2020-11-28 21:00:00 5.2 6 Sudeste 12 Sudeste 0 893.9 -- 92
2020-11-28 20:00:00 5.8 8 Sudeste 14 Sudeste 0 893.6 -- 90
2020-11-28 19:00:00 6.1 8 Sudeste 12 Sudeste 0 893.2 -- 81
2020-11-28 18:00:00 6.4 5 Sudeste 10 Sur 0 892.5 -- 73
2020-11-28 17:00:00 8.1 6 Sur 18 Sudeste 0 891.7 -- 63
2020-11-28 16:00:00 9.3 8 Sur 15 Sur 0 891 -- 57
2020-11-28 15:00:00 9.2 8 Sur 17 Este 0 891.1 -- 61
2020-11-28 14:00:00 8.2 8 Sudeste 14 Sudeste 0 891.6 -- 70
2020-11-28 13:00:00 8.4 9 Sudeste 18 Sudeste 0 892.1 -- 74
2020-11-28 12:00:00 8 10 Sudeste 18 Sudeste 0 892.5 -- 76
2020-11-28 11:00:00 7.3 5 Sudeste 8 Sur 0 892.4 -- 86
2020-11-28 10:00:00 5.7 3 Sur 4 Sudeste 0 892.4 -- 93
2020-11-28 09:00:00 4.7 0 Calma 3 Noroeste 0 892.1 -- 93
2020-11-28 08:00:00 5 4 Oeste 8 Oeste 0 892 -- 93
2020-11-28 07:00:00 5.1 4 Noroeste 6 Noroeste 0 892.1 -- 93
2020-11-28 06:00:00 5 0 Calma 4 Este 0 892.4 -- 93
2020-11-28 05:00:00 4.9 4 Este 5 Este 0 892.7 -- 93
2020-11-28 04:00:00 4.9 0 Calma 6 Norte 0 893.1 -- 92
2020-11-28 03:00:00 4.5 3 Noroeste 6 Noroeste 0 893.3 -- 91
2020-11-28 02:00:00 5.4 0 Calma 4 Sudeste 0 893.6 -- 91
2020-11-28 01:00:00 5.4 0 Calma 5 Nordeste 0 893.9 -- 91
2020-11-28 00:00:00 5.1 2 Noroeste 4 Este 0 894.1 -- 90
2020-11-27 23:00:00 5.9 2 Nordeste 6 Noroeste 0 894.7 -- 90
2020-11-27 22:00:00 5.5 5 Noroeste 6 Noroeste 0 894.9 -- 90
2020-11-27 21:00:00 5.6 0 Calma 6 Oeste 0 894.7 -- 90
2020-11-27 20:00:00 5.7 0 Calma 9 Sudoeste 0 894.8 -- 87
2020-11-27 19:00:00 5.4 0 Calma 12 Este 0 894.9 -- 84
2020-11-27 18:00:00 7.3 6 Este 12 Este 0 894.9 -- 82
2020-11-27 17:00:00 7.7 5 Nordeste 15 Este 0.8 894.8 -- 81
2020-11-27 16:00:00 11.2 5 Sudeste 14 Este 0 894.8 -- 66
2020-11-27 15:00:00 9.5 7 Este 14 Este 0 895.2 -- 75
2020-11-27 14:00:00 9 6 Este 12 Este 0 895.9 -- 78
2020-11-27 13:00:00 7.8 5 Nordeste 10 Este 0 896.7 -- 86
2020-11-27 12:00:00 7.2 7 Este 13 Este 0 897.3 -- 90
2020-11-27 11:00:00 6.5 6 Nordeste 10 Nordeste 0 897.5 -- 93
2020-11-27 10:00:00 5.9 4 Nordeste 9 Nordeste 0 897.5 -- 94
2020-11-27 09:00:00 5.5 5 Norte 14 Norte 0 897.3 -- 94
2020-11-27 08:00:00 5.5 5 Nordeste 13 Nordeste 0 897.3 -- 95
2020-11-27 07:00:00 5.4 4 Nordeste 12 Este 0.1 896.9 -- 94
2020-11-27 06:00:00 5.3 3 Sur 12 Este 0 897 -- 95
2020-11-27 05:00:00 5.5 5 Nordeste 9 Este 0 897.1 -- 94
2020-11-27 04:00:00 5.7 5 Este 13 Este 0 897.3 -- 95
2020-11-27 03:00:00 5.7 5 Nordeste 10 Este 0 897.3 -- 95
2020-11-27 02:00:00 5.8 5 Nordeste 10 Sudeste 0 897.4 -- 94
2020-11-27 01:00:00 5.9 10 Sudeste 18 Sudeste 0.2 897.8 -- 94
2020-11-27 00:00:00 6.1 13 Sudeste 22 Sudeste 0.9 897.9 -- 93
2020-11-26 23:00:00 6.2 9 Este 18 Este 0.1 897.4 -- 89
2020-11-26 22:00:00 6.3 8 Este 14 Este 0.1 897.2 -- 89
2020-11-26 21:00:00 6.4 6 Nordeste 12 Este 0.1 897 -- 89
2020-11-26 20:00:00 6.4 6 Nordeste 12 Nordeste 0.1 896.8 -- 89
2020-11-26 19:00:00 6.3 9 Nordeste 14 Nordeste 0.1 896.6 -- 89
2020-11-26 18:00:00 6.4 4 Nordeste 10 Nordeste 0 896.4 -- 89
2020-11-26 17:00:00 6.6 6 Nordeste 13 Nordeste 0 896.2 -- 89
2020-11-26 16:00:00 7 8 Este 15 Nordeste 0.2 896.1 -- 89
2020-11-26 15:00:00 6.4 9 Este 19 Este 0.4 896.1 -- 89
2020-11-26 14:00:00 6.9 9 Este 21 Sudeste 0 896.4 -- 83
2020-11-26 13:00:00 6.7 14 Este 24 Sudeste 0 896.4 -- 87
2020-11-26 12:00:00 5.9 12 Este 22 Sudeste 0 896.4 -- 95
2020-11-26 11:00:00 5.3 10 Este 26 Este 0 896.3 -- 96
2020-11-26 10:00:00 5 16 Este 28 Nordeste 0 895.9 -- 96
2020-11-26 09:00:00 4.9 11 Este 19 Este 0 895.4 -- 96
2020-11-26 08:00:00 4.9 10 Este 20 Este 0 894.7 -- 96
2020-11-26 07:00:00 4.6 10 Este 22 Este 0.1 894.3 -- 96
2020-11-26 06:00:00 4.6 9 Este 16 Sudeste 0.4 894 -- 96
2020-11-26 05:00:00 4.6 5 Sudeste 13 Este 1.5 894 -- 96
2020-11-26 04:00:00 4.3 9 Este 13 Este 0.3 894.1 -- 96
2020-11-26 03:00:00 4.3 7 Este 14 Sudeste 0.2 894.1 -- 96
2020-11-26 02:00:00 4.4 9 Sudeste 18 Sudeste 0.4 894.3 -- 96
2020-11-26 01:00:00 4.5 8 Este 14 Este 0.8 894.6 -- 96
2020-11-26 00:00:00 4.4 6 Sudeste 11 Sudeste 0.1 894.5 -- 96
2020-11-25 23:00:00 4.1 5 Sudeste 12 Este 0.7 894.6 -- 96
2020-11-25 22:00:00 3.9 0 Calma 10 Este 0.4 894.5 -- 96
2020-11-25 21:00:00 3.7 5 Sudeste 19 Este 1.2 894.5 -- 96
2020-11-25 20:00:00 3.7 9 Este 23 Este 2.1 894.5 -- 96
2020-11-25 19:00:00 3.7 9 Este 20 Este 1.7 894.4 -- 96
2020-11-25 18:00:00 3.7 9 Nordeste 16 Nordeste 1.6 894.5 -- 96
2020-11-25 17:00:00 3.7 7 Este 13 Sudeste 1.3 895 -- 96
2020-11-25 16:00:00 3.7 9 Sudeste 19 Sudeste 1.7 895.1 -- 96
2020-11-25 15:00:00 3.7 14 Sudeste 22 Sudeste 1.9 895.6 -- 96
2020-11-25 14:00:00 3.9 13 Sudeste 23 Sudeste 1.8 896.1 -- 96
2020-11-25 13:00:00 4.1 7 Sudeste -- -- -- 896.7 -- 96
2020-11-25 12:00:00 3.7 5 Sudeste 14 Sudeste 1.6 897.6 -- 96
2020-11-25 11:00:00 3.4 9 Sudeste 17 Sudeste 1.3 897.6 -- 96
2020-11-25 10:00:00 3.1 9 Sudeste 19 Sudeste 0.1 897.5 -- 96
2020-11-25 09:00:00 2.9 10 Sudeste 21 Sudeste 0 897.4 -- 96
2020-11-25 08:00:00 3.2 13 Sudeste 17 Sudeste 0.2 897.2 -- 96
2020-11-25 07:00:00 3.9 9 Sudeste 18 Este 0.1 897.4 -- 95
2020-11-25 06:00:00 4.3 10 Sudeste 18 Sudeste 0.4 897.5 -- 95
2020-11-25 05:00:00 4.6 8 Sudeste 15 Sudeste 0 897.8 -- 88
2020-11-25 04:00:00 6 12 Sudoeste 19 Sudoeste 0 898.2 -- 78
2020-11-25 03:00:00 4.6 4 Sudeste 15 Este 0 898.5 -- 93
2020-11-25 02:00:00 4.7 10 Este 21 Este 0 898.9 -- 93
2020-11-25 01:00:00 5.5 10 Sudeste 21 Sudeste 0 899.7 -- 93
2020-11-25 00:00:00 5.3 8 Sudeste 21 Este 0 900.2 -- 93
2020-11-24 23:00:00 3.8 6 Este 12 Este 0 900.7 -- 94
2020-11-24 22:00:00 0.9 0 Calma 6 Nordeste 0 901.1 -- 93
2020-11-24 21:00:00 1.5 5 Noroeste 9 Noroeste 0 901.5 -- 91
2020-11-24 20:00:00 2.6 6 Noroeste 11 Norte 0 901.9 -- 88
2020-11-24 19:00:00 4 6 Norte 10 Norte 0 902 -- 84
2020-11-24 18:00:00 6.1 8 Norte 14 Nordeste 0 901.9 -- 72
2020-11-24 17:00:00 9.4 9 Nordeste 16 Este 0 902 -- 60
2020-11-24 16:00:00 10.5 8 Este 15 Sudeste 0 902.1 -- 57
2020-11-24 15:00:00 10.7 7 Sudeste 15 Sudeste 0 902.6 -- 55
2020-11-24 14:00:00 10.9 6 Sudeste 12 Sur 0 903.5 -- 55
2020-11-24 13:00:00 9.1 6 Sudeste 13 Sudeste 0 904.4 -- 63
2020-11-24 12:00:00 7.6 3 Nordeste 9 Norte 0 905.2 -- 67
2020-11-24 11:00:00 6.1 3 Nordeste 5 Este 0 905.5 -- 78
2020-11-24 10:00:00 2.3 0 Calma 4 Este 0 905.7 -- 96
2020-11-24 09:00:00 -0.8 3 Noroeste 6 Noroeste 0 905.5 -- 96
2020-11-24 08:00:00 -1.1 4 Noroeste 7 Noroeste 0 905.6 -- 96
2020-11-24 07:00:00 -0.9 4 Norte 6 Noroeste 0 905.5 -- 95
2020-11-24 06:00:00 -1.1 3 Noroeste 6 Noroeste 0 905.7 -- 94
2020-11-24 05:00:00 -0.3 5 Norte 9 Noroeste 0 905.9 -- 94
2020-11-24 04:00:00 0 4 Norte 8 Noroeste 0 906.5 -- 94
2020-11-24 03:00:00 1.2 3 Nordeste 7 Nordeste 0 907 -- 93
2020-11-24 02:00:00 1.5 0 Calma 9 Noroeste 0 907.7 -- 93
2020-11-24 01:00:00 1.7 4 Nordeste 5 Este 0 908.2 -- 93
2020-11-24 00:00:00 0.7 0 Calma 7 Oeste 0 908.7 -- 93
2020-11-23 23:00:00 1.2 0 Calma 9 Noroeste 0 909.1 -- 92
2020-11-23 22:00:00 1.7 5 Noroeste 8 Noroeste 0 909.3 -- 90
2020-11-23 21:00:00 2.5 4 Noroeste 6 Noroeste 0 909.6 -- 88
2020-11-23 20:00:00 3.8 6 Noroeste 8 Noroeste 0 909.7 -- 87
2020-11-23 19:00:00 4.4 3 Noroeste 5 Noroeste 0 909.8 -- 80
2020-11-23 18:00:00 8.4 0 Calma 10 Sudeste 0 909.7 -- 61
2020-11-23 17:00:00 11.7 6 Sudeste 10 Sudeste 0 909.5 -- 52
2020-11-23 16:00:00 14.5 4 Sudeste 9 Sudeste 0 909.5 -- 42
2020-11-23 15:00:00 15 3 Este 9 Sur 0 909.8 -- 41
2020-11-23 14:00:00 14.5 2 Sur 10 Sudeste 0 910.1 -- 44
2020-11-23 13:00:00 13.4 3 Sudeste 8 Sudeste 0 910.9 -- 48
2020-11-23 12:00:00 10.8 3 Este 8 Este 0 911.6 -- 51
2020-11-23 11:00:00 9.4 0 Calma 5 Este 0 911.8 -- 57
2020-11-23 10:00:00 7 0 Calma 5 Norte 0 911.5 -- 67
2020-11-23 09:00:00 0.5 3 Noroeste 4 Oeste 0 911.3 -- 88
2020-11-23 08:00:00 -0.1 0 Calma 5 Nordeste 0 911 -- 89
2020-11-23 07:00:00 -0.3 4 Noroeste 6 Noroeste 0 910.7 -- 88
2020-11-23 06:00:00 0.1 5 Noroeste 10 Noroeste 0 910.9 -- 88
2020-11-23 05:00:00 0.3 3 Noroeste 8 Noroeste 0 910.9 -- 89
2020-11-23 04:00:00 -0.4 3 Noroeste 7 Noroeste 0 911.1 -- 87
2020-11-23 03:00:00 0.3 2 Noroeste 10 Noroeste 0 911.2 -- 84
2020-11-23 02:00:00 1.4 7 Noroeste 10 Noroeste 0 911.4 -- 81
2020-11-23 01:00:00 1.8 8 Noroeste 12 Noroeste 0 911.8 -- 80
2020-11-23 00:00:00 1.6 7 Noroeste 9 Noroeste 0 911.8 -- 79
2020-11-22 23:00:00 4.6 0 Calma 12 Nordeste 0 911.8 -- 63
2020-11-22 22:00:00 5.3 0 Calma 15 Norte 0 911.6 -- 61
2020-11-22 21:00:00 3.5 3 Norte 9 Norte 0 911.4 -- 70
2020-11-22 20:00:00 4.4 0 Calma 7 Noroeste 0 911 -- 61
2020-11-22 19:00:00 8.2 2 Nordeste 10 Nordeste 0 910.9 -- 45
2020-11-22 18:00:00 11.3 3 Norte 8 Sudeste 0 910.3 -- 44
2020-11-22 17:00:00 15.9 7 Sudeste 9 Sudeste 0 910 -- 35
2020-11-22 16:00:00 17.7 2 Sudeste 10 Sudeste 0 909.8 -- 32
2020-11-22 15:00:00 17.3 5 Sudeste 12 Sudeste 0 909.8 -- 33
2020-11-22 14:00:00 16.3 4 Sudeste 12 Sur 0 910.3 -- 34
2020-11-22 13:00:00 14.8 5 Sur 10 Sudeste 0 910.7 -- 36
2020-11-22 12:00:00 11.9 3 Sur 7 Sur 0 911.2 -- 41
2020-11-22 11:00:00 10.3 4 Sudeste 9 Sudeste 0 911.2 -- 45
2020-11-22 10:00:00 8.9 3 Sudeste 7 Sudeste 0 911 -- 53
2020-11-22 09:00:00 1.3 4 Noroeste 6 Noroeste 0 910.8 -- 72
2020-11-22 08:00:00 -1 5 Noroeste 7 Noroeste 0 910.7 -- 78
2020-11-22 07:00:00 -1.2 3 Noroeste 6 Noroeste 0 910.9 -- 78
2020-11-22 06:00:00 -1.3 2 Norte 4 Noroeste 0 910.6 -- 76
2020-11-22 05:00:00 -0.1 3 Norte 4 Noroeste 0 910.3 -- 75
2020-11-22 04:00:00 0 0 Calma 7 Noroeste 0 910.4 -- 75
2020-11-22 03:00:00 0.4 3 Noroeste 7 Noroeste 0 910.2 -- 75
2020-11-22 02:00:00 1.1 4 Noroeste 8 Noroeste 0 910.5 -- 73
2020-11-22 01:00:00 1 6 Noroeste 11 Noroeste 0 910.8 -- 76
2020-11-22 00:00:00 1.1 8 Noroeste 9 Noroeste 0 911 -- 76
2020-11-21 23:00:00 1.6 0 Calma 6 Norte 0 911.1 -- 75
2020-11-21 22:00:00 2.4 3 Noroeste 8 Norte 0 910.9 -- 73
2020-11-21 21:00:00 2.6 5 Noroeste 6 Noroeste 0 911 -- 70
2020-11-21 20:00:00 4.3 4 Noroeste 10 Noroeste 0 910.9 -- 64
2020-11-21 19:00:00 5.2 7 Noroeste 8 Noroeste 0 910.8 -- 60
2020-11-21 18:00:00 11.6 0 Calma 9 Sudeste 0 910.3 -- 33
2020-11-21 17:00:00 17.3 4 Sudeste 9 Sudeste 0 910.2 -- 26
2020-11-21 16:00:00 18.1 5 Sudeste 10 Este 0 909.9 -- 25
2020-11-21 15:00:00 18 0 Calma 12 Este 0 910.2 -- 25
2020-11-21 14:00:00 17.4 4 Este 10 Sudeste 0 910.9 -- 25
2020-11-21 13:00:00 15.7 5 Sur 12 Sur 0 911.4 -- 26
2020-11-21 12:00:00 14.2 0 Calma 6 Sudeste 0 912 -- 29
2020-11-21 11:00:00 13.2 3 Este 9 Este 0 912.2 -- 34
2020-11-21 10:00:00 10.5 7 Noroeste 15 Noroeste 0 912.1 -- 47
2020-11-21 09:00:00 4.4 12 Noroeste 18 Oeste 0 911.8 -- 65
2020-11-21 08:00:00 2.2 13 Noroeste 15 Noroeste 0 911.9 -- 71
2020-11-21 07:00:00 1.8 9 Noroeste 15 Oeste 0 911.9 -- 79
2020-11-21 06:00:00 1.2 12 Noroeste 14 Noroeste 0 911.9 -- 90
2020-11-21 05:00:00 0.2 4 Oeste 10 Noroeste 0 912.3 -- 92
2020-11-21 04:00:00 -0.2 6 Oeste 8 Oeste 0 912.7 -- 92
2020-11-21 03:00:00 0.2 2 Oeste 8 Noroeste 0 913 -- 91
2020-11-21 02:00:00 0.5 6 Noroeste 8 Noroeste 0 913.3 -- 90
2020-11-21 01:00:00 1.4 3 Este 8 Sudeste 0 913.8 -- 87
2020-11-21 00:00:00 2 5 Noroeste 7 Noroeste 0 913.7 -- 85
2020-11-20 23:00:00 1.5 2 Noroeste 5 Nordeste 0 914.1 -- 85
2020-11-20 22:00:00 1.9 0 Calma 10 Noroeste 0 914.5 -- 85
2020-11-20 21:00:00 2.7 4 Noroeste 9 Norte 0 914.9 -- 85
2020-11-20 20:00:00 3 6 Noroeste 7 Noroeste 0 914.6 -- 84
2020-11-20 19:00:00 3.9 6 Noroeste 8 Noroeste 0 914.8 -- 76
2020-11-20 18:00:00 8 4 Sudeste 7 Sudeste 0 914.8 -- 58
2020-11-20 17:00:00 11.6 3 Sur 9 Sudeste 0 914.3 -- 48
2020-11-20 16:00:00 11.8 6 Sur 13 Sudeste 0 914.6 -- 51
2020-11-20 15:00:00 12.1 5 Sur 11 Sur 0 914.7 -- 52
2020-11-20 14:00:00 10.5 3 Sur 8 Sur 0 915.3 -- 61
2020-11-20 13:00:00 6.4 3 Norte 10 Este 0 916.4 -- 79
2020-11-20 12:00:00 5.5 3 Sur 10 Sudeste 0 917 -- 89
2020-11-20 11:00:00 5.1 3 Sur 12 Sur 0 917 -- 94
2020-11-20 10:00:00 4.7 4 Sur 9 Sur 0 917.1 -- 95
2020-11-20 09:00:00 4.4 4 Sur 7 Sur 0.1 916.7 -- 95
2020-11-20 08:00:00 4.7 4 Sur 8 Sudeste 0 916.4 -- 95
2020-11-20 07:00:00 4.8 3 Sur 9 Sudeste 0 916.5 -- 95
2020-11-20 06:00:00 5 5 Sudeste 8 Sudeste 0.1 916.6 -- 95
2020-11-20 05:00:00 5.5 3 Sur 7 Sudeste 0 917.2 -- 94
2020-11-20 04:00:00 5.7 5 Sudeste 9 Sur 0 917.3 -- 94
2020-11-20 03:00:00 6 4 Sudeste 8 Sudeste 0 917.5 -- 93
2020-11-20 02:00:00 6.3 4 Sur 9 Sudeste 0 917.8 -- 91
2020-11-20 01:00:00 6.5 5 Sudeste 10 Sur 0 918.4 -- 91
2020-11-20 00:00:00 7.2 5 Sudoeste 9 Sudoeste 0 918.2 -- 91
2020-11-19 23:00:00 8 5 Sudeste 10 Sudeste 0 918.5 -- 91
2020-11-19 22:00:00 8.2 5 Sudeste 13 Este 0 917.9 -- 92
2020-11-19 21:00:00 7 9 Nordeste 12 Este 0 917.8 -- 91
2020-11-19 20:00:00 6.2 3 Noroeste 5 Norte 0 917.7 -- 85
2020-11-19 19:00:00 8.9 2 Noroeste 9 Noroeste 0 917.6 -- 78
2020-11-19 18:00:00 12.8 2 Sudeste 12 Sur 0 917.2 -- 61
2020-11-19 17:00:00 16.5 8 Sur 16 Sudeste 0 916.9 -- 51
2020-11-19 16:00:00 17.5 7 Sudeste 13 Sudeste 0 916.8 -- 49
2020-11-19 15:00:00 17.4 6 Sur 15 Sur 0 916.6 -- 50
2020-11-19 14:00:00 16.9 7 Sur 16 Sur 0 917.1 -- 50
2020-11-19 13:00:00 16 4 Sudeste 13 Sudeste 0 918.2 -- 54
2020-11-19 12:00:00 13.8 6 Sudeste 16 Sudeste 0 918.5 -- 61
2020-11-19 11:00:00 12.2 10 Sur 16 Sur 0 918.1 -- 67
2020-11-19 10:00:00 12.6 4 Sudeste 12 Nordeste 0 918.2 -- 71
2020-11-19 09:00:00 8.6 9 Nordeste 15 Nordeste 0 917.5 -- 85
2020-11-19 08:00:00 4.7 0 Calma 8 Oeste 0 916.5 -- 88
2020-11-19 07:00:00 6.2 6 Noroeste 17 Norte 0 915.7 -- 84
2020-11-19 06:00:00 9 11 Norte 16 Norte 0 915.6 -- 84
2020-11-19 05:00:00 6.2 3 Noroeste 9 Noroeste 0 915.1 -- 89
2020-11-19 04:00:00 5.1 5 Noroeste 12 Noroeste 0 914.7 -- 91
2020-11-19 03:00:00 5.5 6 Noroeste 9 Noroeste 0 914.4 -- 90
2020-11-19 02:00:00 7 3 Oeste 8 Noroeste 0 914.4 -- 88
2020-11-19 01:00:00 7.3 3 Noroeste 12 Norte 0 914.5 -- 88
2020-11-19 00:00:00 8.6 9 Norte 15 Nordeste 0 914.5 -- 93
2020-11-18 23:00:00 6.6 4 Noroeste 12 Noroeste 0 914.5 -- 94
2020-11-18 22:00:00 5.8 9 Noroeste 11 Noroeste 0 914.2 -- 93
2020-11-18 21:00:00 6.3 4 Noroeste 6 Norte 0 913.4 -- 93
2020-11-18 20:00:00 6.5 4 Norte 7 Noroeste 0 912.9 -- 92
2020-11-18 19:00:00 6.8 5 Noroeste 8 Norte 0 912.4 -- 89
2020-11-18 18:00:00 9 2 Norte 9 Nordeste 0 911.9 -- 82
2020-11-18 17:00:00 10.6 5 Nordeste 10 Este 0 911.3 -- 73
2020-11-18 16:00:00 14.4 6 Este 10 Este 0 910.9 -- 60
2020-11-18 15:00:00 14.6 4 Este 9 Este 0 910.8 -- 61
2020-11-18 14:00:00 12.2 2 Noroeste 7 Noroeste 0 911.1 -- 75
2020-11-18 13:00:00 9.6 0 Calma 7 Este 0 911.6 -- 84
2020-11-18 12:00:00 7.9 4 Nordeste 9 Nordeste 0 911.9 -- 93
2020-11-18 11:00:00 7.2 5 Nordeste 8 Nordeste 0 911.7 -- 95
2020-11-18 10:00:00 6.5 3 Nordeste 9 Norte 0 911.4 -- 95
2020-11-18 09:00:00 2.5 0 Calma 7 Noroeste 0 910.9 -- 95
2020-11-18 08:00:00 1.8 3 Noroeste 6 Noroeste 0 910.4 -- 95
2020-11-18 07:00:00 1.4 3 Noroeste 7 Noroeste 0 910 -- 94
2020-11-18 06:00:00 2.1 4 Noroeste 8 Noroeste 0 909.8 -- 94
2020-11-18 05:00:00 2.7 6 Noroeste 9 Nordeste 0 909.7 -- 94
2020-11-18 04:00:00 4.2 5 Norte 10 Nordeste 0 909.8 -- 94
2020-11-18 03:00:00 3.7 5 Nordeste 10 Norte 0 909.6 -- 94
2020-11-18 02:00:00 3.3 6 Noroeste 10 Noroeste 0 909.9 -- 94
2020-11-18 01:00:00 3.2 5 Norte 9 Norte 0 910.3 -- 93
2020-11-18 00:00:00 3.3 4 Noroeste 7 Norte 0 910.5 -- 91
2020-11-17 23:00:00 5 5 Nordeste 10 Nordeste 0 910.4 -- 91
2020-11-17 22:00:00 5.1 5 Norte 10 Nordeste 0 910.2 -- 88
2020-11-17 21:00:00 5.4 2 Norte 8 Nordeste 0 910.2 -- 86
2020-11-17 20:00:00 6.9 0 Calma 6 Nordeste 0 910.1 -- 81
2020-11-17 19:00:00 9.3 4 Este 13 Sudeste 0 909.7 -- 71
2020-11-17 18:00:00 11.1 14 Sudeste 18 Sudeste 0 909.5 -- 61
2020-11-17 17:00:00 14.7 11 Sudeste 20 Sudeste 0 909.5 -- 49
2020-11-17 16:00:00 15.5 12 Sudeste 19 Sudeste 0 909.4 -- 47
2020-11-17 15:00:00 14.7 13 Sudeste 19 Sudeste 0 909.5 -- 48
2020-11-17 14:00:00 14.5 9 Sudeste 18 Sudeste 0 909.8 -- 54
2020-11-17 13:00:00 13.1 6 Sur 14 Sudeste 0 910.5 -- 62
2020-11-17 12:00:00 11.1 4 Sur 10 Sur 0 911.1 -- 69
2020-11-17 11:00:00 10.2 3 Sudeste 7 Este 0 911.2 -- 79
2020-11-17 10:00:00 7.8 2 Sudeste 4 Noroeste 0 911 -- 96
2020-11-17 09:00:00 1.3 3 Noroeste 6 Noroeste 0 910.8 -- 96
2020-11-17 08:00:00 -0.5 3 Noroeste 5 Noroeste 0 910.3 -- 96
2020-11-17 07:00:00 0.1 5 Noroeste 7 Noroeste 0 910.4 -- 96
2020-11-17 06:00:00 0.1 4 Noroeste 7 Noroeste 0 910.4 -- 96
2020-11-17 05:00:00 0.3 3 Noroeste 9 Noroeste 0 910.5 -- 95
2020-11-17 04:00:00 0.5 5 Noroeste 7 Noroeste 0 910.6 -- 95
2020-11-17 03:00:00 0.8 4 Noroeste 7 Noroeste 0 910.8 -- 94
2020-11-17 02:00:00 1.1 3 Noroeste 5 Noroeste 0 910.8 -- 94
2020-11-17 01:00:00 1.7 4 Noroeste 5 Norte 0 911.1 -- 94
2020-11-17 00:00:00 2 3 Norte 5 Norte 0 911.2 -- 93
2020-11-16 23:00:00 2.9 0 Calma 6 Noroeste 0 911.1 -- 93
2020-11-16 22:00:00 3.4 2 Noroeste 8 Noroeste 0 910.9 -- 92
2020-11-16 21:00:00 3.7 2 Norte 5 Noroeste 0 910.8 -- 90
2020-11-16 20:00:00 4.2 4 Noroeste 7 Noroeste 0 910.5 -- 87
2020-11-16 19:00:00 6 0 Calma 4 Este 0 910.2 -- 78
2020-11-16 18:00:00 10.5 2 Este 7 Sudeste 0 909.9 -- 60
2020-11-16 17:00:00 14 4 Sur 10 Sudeste 0 909.5 -- 53
2020-11-16 16:00:00 13.5 6 Sudeste 15 Sur 0 909.5 -- 51
2020-11-16 15:00:00 13.5 6 Sur 14 Sudeste 0 909.4 -- 50
2020-11-16 14:00:00 13.1 4 Sur 14 Sur 0 909.5 -- 50
2020-11-16 13:00:00 12.3 5 Sudeste 14 Sur 0 909.6 -- 58
2020-11-16 12:00:00 11.2 5 Este 12 Este 0.1 909.7 -- 64
2020-11-16 11:00:00 10.4 4 Sur 7 Sudeste 0 909.3 -- 63
2020-11-16 10:00:00 8.9 0 Calma 4 Norte 0 908.8 -- 79
2020-11-16 09:00:00 3.2 4 Noroeste 10 Oeste 0 908 -- 90
2020-11-16 08:00:00 2.7 3 Noroeste 12 Noroeste 0 907.6 -- 87
2020-11-16 07:00:00 4.2 10 Noroeste 14 Noroeste 0 907.2 -- 86
2020-11-16 06:00:00 3.7 6 Noroeste 13 Noroeste 0 906.9 -- 85
2020-11-16 05:00:00 5.2 5 Noroeste 10 Noroeste 0 906.4 -- 84
2020-11-16 04:00:00 5.1 0 Calma 17 Noroeste 0 906.8 0.6 78
2020-11-16 03:00:00 6.1 9 Noroeste 16 Oeste 0 906.1 -- 81
2020-11-16 02:00:00 7.9 10 Norte 21 Nordeste 0 906 -- 79